sensor_id;sensor_type;location;lat;lon;timestamp;pressure;altitude;pressure_sealevel;temperature;humidity
10978;BME280;5542;48.272;10.794;2023-05-25T05:08:41;96027.59;;;10.40;80.02
10978;BME280;5542;48.272;10.794;2023-05-25T05:11:07;96028.91;;;10.31;80.48
10978;BME280;5542;48.272;10.794;2023-05-25T05:13:34;96028.34;;;10.22;80.92
10978;BME280;5542;48.272;10.794;2023-05-25T05:16:01;96031.56;;;10.24;81.24
10978;BME280;5542;48.272;10.794;2023-05-25T05:18:27;96029.81;;;10.18;82.63
10978;BME280;5542;48.272;10.794;2023-05-25T05:20:54;96030.22;;;10.40;80.89
10978;BME280;5542;48.272;10.794;2023-05-25T05:23:20;96034.06;;;10.38;81.30
10978;BME280;5542;48.272;10.794;2023-05-25T05:25:48;96039.34;;;10.38;81.89
10978;BME280;5542;48.272;10.794;2023-05-25T05:28:15;96048.91;;;10.50;81.15
10978;BME280;5542;48.272;10.794;2023-05-25T05:30:42;96049.56;;;10.64;80.53
10978;BME280;5542;48.272;10.794;2023-05-25T05:33:10;96049.75;;;10.63;80.89
10978;BME280;5542;48.272;10.794;2023-05-25T05:35:37;96048.97;;;10.62;80.86
10978;BME280;5542;48.272;10.794;2023-05-25T05:38:03;96050.38;;;10.65;81.44
10978;BME280;5542;48.272;10.794;2023-05-25T05:40:30;96056.13;;;10.73;81.24
10978;BME280;5542;48.272;10.794;2023-05-25T05:42:58;96054.84;;;10.94;80.58
10978;BME280;5542;48.272;10.794;2023-05-25T05:45:24;96052.31;;;10.88;81.12
10978;BME280;5542;48.272;10.794;2023-05-25T05:47:51;96063.78;;;10.93;81.29
10978;BME280;5542;48.272;10.794;2023-05-25T05:50:18;96056.16;;;11.03;81.16
10978;BME280;5542;48.272;10.794;2023-05-25T05:52:44;96059.50;;;11.11;81.15
10978;BME280;5542;48.272;10.794;2023-05-25T05:55:11;96056.78;;;11.17;81.29
10978;BME280;5542;48.272;10.794;2023-05-25T05:57:37;96057.72;;;11.23;81.15
10978;BME280;5542;48.272;10.794;2023-05-25T06:00:07;96067.56;;;11.16;82.11
10978;BME280;5542;48.272;10.794;2023-05-25T06:02:34;96057.41;;;11.31;81.92
10978;BME280;5542;48.272;10.794;2023-05-25T06:05:00;96062.38;;;11.51;81.51
10978;BME280;5542;48.272;10.794;2023-05-25T06:07:27;96061.59;;;11.50;81.28
10978;BME280;5542;48.272;10.794;2023-05-25T06:09:55;96061.94;;;11.54;81.37
10978;BME280;5542;48.272;10.794;2023-05-25T06:12:21;96063.53;;;11.55;80.34
10978;BME280;5542;48.272;10.794;2023-05-25T06:14:48;96064.91;;;11.58;80.29
10978;BME280;5542;48.272;10.794;2023-05-25T06:17:17;96058.94;;;11.50;80.65
10978;BME280;5542;48.272;10.794;2023-05-25T06:19:44;96067.09;;;11.61;81.26
10978;BME280;5542;48.272;10.794;2023-05-25T06:22:10;96061.97;;;11.77;80.15
10978;BME280;5542;48.272;10.794;2023-05-25T06:24:37;96059.44;;;11.71;79.84
10978;BME280;5542;48.272;10.794;2023-05-25T06:27:04;96067.47;;;11.64;80.80
10978;BME280;5542;48.272;10.794;2023-05-25T06:29:30;96065.84;;;11.63;81.15
10978;BME280;5542;48.272;10.794;2023-05-25T06:31:57;96066.19;;;11.67;80.88
10978;BME280;5542;48.272;10.794;2023-05-25T06:34:25;96067.09;;;11.61;80.80
10978;BME280;5542;48.272;10.794;2023-05-25T06:36:51;96059.44;;;11.71;81.32
10978;BME280;5542;48.272;10.794;2023-05-25T06:39:18;96060.22;;;11.71;81.30
10978;BME280;5542;48.272;10.794;2023-05-25T06:41:45;96061.16;;;11.77;80.42
10978;BME280;5542;48.272;10.794;2023-05-25T06:44:11;96064.53;;;11.96;80.38
10978;BME280;5542;48.272;10.794;2023-05-25T06:46:38;96060.41;;;11.88;80.05
10978;BME280;5542;48.272;10.794;2023-05-25T06:49:05;96071.63;;;11.95;80.07
10978;BME280;5542;48.272;10.794;2023-05-25T06:51:33;96065.44;;;11.90;80.30
10978;BME280;5542;48.272;10.794;2023-05-25T06:53:59;96064.66;;;12.13;79.55
10978;BME280;5542;48.272;10.794;2023-05-25T06:56:26;96061.78;;;12.14;79.90
10978;BME280;5542;48.272;10.794;2023-05-25T06:58:53;96068.78;;;12.09;80.06
10978;BME280;5542;48.272;10.794;2023-05-25T07:01:19;96080.50;;;12.13;80.08
10978;BME280;5542;48.272;10.794;2023-05-25T07:03:46;96078.75;;;12.18;79.88
10978;BME280;5542;48.272;10.794;2023-05-25T07:06:12;96076.47;;;12.10;79.94
10978;BME280;5542;48.272;10.794;2023-05-25T07:08:42;96078.88;;;12.12;80.67
10978;BME280;5542;48.272;10.794;2023-05-25T07:11:09;96069.72;;;12.26;79.62
10978;BME280;5542;48.272;10.794;2023-05-25T07:13:38;96069.81;;;12.31;79.24
10978;BME280;5542;48.272;10.794;2023-05-25T07:16:05;96077.25;;;12.34;79.77
10978;BME280;5542;48.272;10.794;2023-05-25T07:18:31;96081.06;;;12.26;79.86
10978;BME280;5542;48.272;10.794;2023-05-25T07:20:58;96075.56;;;12.40;79.69
10978;BME280;5542;48.272;10.794;2023-05-25T07:23:24;96076.00;;;12.37;79.97
10978;BME280;5542;48.272;10.794;2023-05-25T07:25:52;96074.63;;;12.46;80.90
10978;BME280;5542;48.272;10.794;2023-05-25T07:28:19;96068.06;;;12.48;79.55
10978;BME280;5542;48.272;10.794;2023-05-25T07:30:45;96066.69;;;12.57;78.77
10978;BME280;5542;48.272;10.794;2023-05-25T07:33:12;96076.34;;;12.64;79.44
10978;BME280;5542;48.272;10.794;2023-05-25T07:35:38;96078.38;;;12.73;79.46
10978;BME280;5542;48.272;10.794;2023-05-25T07:38:05;96077.78;;;12.83;78.95
10978;BME280;5542;48.272;10.794;2023-05-25T07:40:32;96078.34;;;12.85;79.10
10978;BME280;5542;48.272;10.794;2023-05-25T07:42:59;96084.91;;;12.82;78.63
10978;BME280;5542;48.272;10.794;2023-05-25T07:45:26;96088.69;;;12.75;79.71
10978;BME280;5542;48.272;10.794;2023-05-25T07:47:52;96090.72;;;12.85;78.71
10978;BME280;5542;48.272;10.794;2023-05-25T07:50:19;96092.78;;;12.94;78.91
10978;BME280;5542;48.272;10.794;2023-05-25T07:52:46;96097.09;;;13.00;79.17
10978;BME280;5542;48.272;10.794;2023-05-25T07:55:12;96101.59;;;13.00;78.88
10978;BME280;5542;48.272;10.794;2023-05-25T07:57:39;96104.81;;;13.02;79.09
10978;BME280;5542;48.272;10.794;2023-05-25T08:00:08;96106.84;;;13.12;77.85
10978;BME280;5542;48.272;10.794;2023-05-25T08:02:35;96115.22;;;13.08;79.07
10978;BME280;5542;48.272;10.794;2023-05-25T08:05:02;96106.13;;;13.28;77.02
10978;BME280;5542;48.272;10.794;2023-05-25T08:07:31;96104.28;;;13.28;76.83
10978;BME280;5542;48.272;10.794;2023-05-25T08:09:57;96110.19;;;13.47;75.66
10978;BME280;5542;48.272;10.794;2023-05-25T08:12:24;96113.63;;;13.48;73.98
10978;BME280;5542;48.272;10.794;2023-05-25T08:14:50;96126.09;;;13.36;74.47
10978;BME280;5542;48.272;10.794;2023-05-25T08:17:19;96120.63;;;13.25;74.56
10978;BME280;5542;48.272;10.794;2023-05-25T08:19:46;96122.34;;;13.20;75.57
10978;BME280;5542;48.272;10.794;2023-05-25T08:22:12;96120.47;;;13.32;75.23
10978;BME280;5542;48.272;10.794;2023-05-25T08:24:39;96120.75;;;13.47;75.13
10978;BME280;5542;48.272;10.794;2023-05-25T08:27:05;96123.38;;;13.47;74.22
10978;BME280;5542;48.272;10.794;2023-05-25T08:29:32;96125.84;;;13.66;73.94
10978;BME280;5542;48.272;10.794;2023-05-25T08:31:59;96133.94;;;13.76;74.11
10978;BME280;5542;48.272;10.794;2023-05-25T08:34:26;96126.34;;;13.63;72.88
10978;BME280;5542;48.272;10.794;2023-05-25T08:36:53;96126.97;;;13.70;73.61
10978;BME280;5542;48.272;10.794;2023-05-25T08:39:20;96126.69;;;13.83;72.03
10978;BME280;5542;48.272;10.794;2023-05-25T08:41:49;96138.38;;;13.87;72.02
10978;BME280;5542;48.272;10.794;2023-05-25T08:44:16;96146.06;;;13.89;72.34
10978;BME280;5542;48.272;10.794;2023-05-25T08:46:45;96136.78;;;14.03;71.56
10978;BME280;5542;48.272;10.794;2023-05-25T08:49:13;96141.19;;;13.97;72.28
10978;BME280;5542;48.272;10.794;2023-05-25T08:51:47;96145.06;;;14.06;72.22
10978;BME280;5542;48.272;10.794;2023-05-25T08:54:16;96138.88;;;14.34;71.00
10978;BME280;5542;48.272;10.794;2023-05-25T08:56:48;96134.94;;;14.37;71.11
10978;BME280;5542;48.272;10.794;2023-05-25T08:59:24;96131.66;;;14.64;70.79
10978;BME280;5542;48.272;10.794;2023-05-25T09:02:00;96146.88;;;14.73;69.41
10978;BME280;5542;48.272;10.794;2023-05-25T09:04:27;96144.97;;;14.91;68.67
10978;BME280;5542;48.272;10.794;2023-05-25T09:06:57;96147.81;;;14.84;68.58
10978;BME280;5542;48.272;10.794;2023-05-25T09:09:23;96141.81;;;15.10;69.03
10978;BME280;5542;48.272;10.794;2023-05-25T09:11:51;96150.31;;;15.13;68.33
10978;BME280;5542;48.272;10.794;2023-05-25T09:14:18;96150.41;;;15.23;68.37
10978;BME280;5542;48.272;10.794;2023-05-25T09:16:45;96147.28;;;15.26;67.61
10978;BME280;5542;48.272;10.794;2023-05-25T09:19:12;96147.09;;;15.32;67.62
10978;BME280;5542;48.272;10.794;2023-05-25T09:21:39;96146.28;;;15.32;67.71
10978;BME280;5542;48.272;10.794;2023-05-25T09:24:07;96143.78;;;15.20;69.21
10978;BME280;5542;48.272;10.794;2023-05-25T09:26:33;96152.28;;;15.44;68.69
10978;BME280;5542;48.272;10.794;2023-05-25T09:29:00;96152.94;;;15.13;68.11
10978;BME280;5542;48.272;10.794;2023-05-25T09:31:27;96162.69;;;15.07;68.43
10978;BME280;5542;48.272;10.794;2023-05-25T09:33:54;96157.31;;;15.02;69.30
10978;BME280;5542;48.272;10.794;2023-05-25T09:36:24;96162.88;;;15.00;69.31
10978;BME280;5542;48.272;10.794;2023-05-25T09:38:51;96167.31;;;15.17;69.23
10978;BME280;5542;48.272;10.794;2023-05-25T09:41:19;96168.31;;;15.10;68.79
10978;BME280;5542;48.272;10.794;2023-05-25T09:43:46;96175.97;;;14.90;69.22
10978;BME280;5542;48.272;10.794;2023-05-25T09:46:13;96184.22;;;14.94;70.10
10978;BME280;5542;48.272;10.794;2023-05-25T10:05:38;96193.63;;;15.01;68.59
10978;BME280;5542;48.272;10.794;2023-05-25T10:08:05;96195.28;;;14.91;70.02
10978;BME280;5542;48.272;10.794;2023-05-25T10:10:32;96185.34;;;14.98;69.97
10978;BME280;5542;48.272;10.794;2023-05-25T10:12:59;96194.41;;;15.02;69.83
10978;BME280;5542;48.272;10.794;2023-05-25T10:15:26;96187.19;;;14.97;69.82
10978;BME280;5542;48.272;10.794;2023-05-25T10:17:53;96191.44;;;14.98;70.70
10978;BME280;5542;48.272;10.794;2023-05-25T10:20:21;96191.88;;;15.12;69.83
10978;BME280;5542;48.272;10.794;2023-05-25T13:00:56;96133.06;;;19.08;58.25
10978;BME280;5542;48.272;10.794;2023-05-25T13:03:23;96124.47;;;19.27;56.94
10978;BME280;5542;48.272;10.794;2023-05-25T13:05:50;96127.31;;;19.45;57.58
10978;BME280;5542;48.272;10.794;2023-05-25T13:08:16;96129.44;;;19.49;56.80
10978;BME280;5542;48.272;10.794;2023-05-25T13:10:43;96127.47;;;19.69;57.09
10978;BME280;5542;48.272;10.794;2023-05-25T13:13:12;96125.84;;;19.74;55.17
10978;BME280;5542;48.272;10.794;2023-05-25T13:15:39;96127.31;;;19.95;54.19
10978;BME280;5542;48.272;10.794;2023-05-25T13:18:07;96115.38;;;19.82;55.04
10978;BME280;5542;48.272;10.794;2023-05-25T13:20:33;96119.00;;;20.02;54.63
10978;BME280;5542;48.272;10.794;2023-05-25T13:23:01;96116.94;;;19.88;55.01
10978;BME280;5542;48.272;10.794;2023-05-25T13:25:30;96113.66;;;20.02;55.75
10978;BME280;5542;48.272;10.794;2023-05-25T13:27:56;96113.56;;;20.12;55.33
10978;BME280;5542;48.272;10.794;2023-05-25T13:30:24;96111.91;;;20.21;55.93
10978;BME280;5542;48.272;10.794;2023-05-25T13:32:51;96120.59;;;20.37;54.13
10978;BME280;5542;48.272;10.794;2023-05-25T13:35:19;96122.63;;;20.16;55.22
10978;BME280;5542;48.272;10.794;2023-05-25T13:38:01;96126.72;;;20.03;54.41
10978;BME280;5542;48.272;10.794;2023-05-25T13:40:39;96122.91;;;20.14;55.70
10978;BME280;5542;48.272;10.794;2023-05-25T13:43:05;96121.78;;;20.20;55.26
10978;BME280;5542;48.272;10.794;2023-05-25T13:45:32;96126.31;;;20.20;54.83
10978;BME280;5542;48.272;10.794;2023-05-25T13:47:59;96120.69;;;20.21;54.76
10978;BME280;5542;48.272;10.794;2023-05-25T13:50:27;96113.59;;;20.41;55.01
10978;BME280;5542;48.272;10.794;2023-05-25T13:52:53;96105.13;;;20.34;52.68
10978;BME280;5542;48.272;10.794;2023-05-25T13:55:20;96111.13;;;20.50;53.74
10978;BME280;5542;48.272;10.794;2023-05-25T13:57:47;96108.47;;;20.50;52.93
10978;BME280;5542;48.272;10.794;2023-05-25T14:00:14;96113.75;;;20.55;52.46
10978;BME280;5542;48.272;10.794;2023-05-25T14:02:40;96112.69;;;20.56;52.46
10978;BME280;5542;48.272;10.794;2023-05-25T14:05:07;96107.00;;;20.62;52.57
10978;BME280;5542;48.272;10.794;2023-05-25T14:07:37;96103.81;;;20.60;50.94
10978;BME280;5542;48.272;10.794;2023-05-25T14:10:06;96103.03;;;20.60;51.20
10978;BME280;5542;48.272;10.794;2023-05-25T14:12:32;96097.41;;;20.61;50.79
10978;BME280;5542;48.272;10.794;2023-05-25T14:14:59;96100.53;;;20.68;51.68
10978;BME280;5542;48.272;10.794;2023-05-25T14:17:25;96097.97;;;20.82;51.62
10978;BME280;5542;48.272;10.794;2023-05-25T14:19:52;96092.31;;;20.89;51.35
10978;BME280;5542;48.272;10.794;2023-05-25T14:22:18;96084.56;;;20.87;50.22
10978;BME280;5542;48.272;10.794;2023-05-25T14:24:46;96091.03;;;21.05;50.33
10978;BME280;5542;48.272;10.794;2023-05-25T14:27:13;96090.63;;;21.17;51.66
10978;BME280;5542;48.272;10.794;2023-05-25T14:29:45;96087.69;;;21.18;51.58
10978;BME280;5542;48.272;10.794;2023-05-25T14:32:11;96085.19;;;21.03;51.10
10978;BME280;5542;48.272;10.794;2023-05-25T14:34:38;96094.88;;;20.99;51.75
10978;BME280;5542;48.272;10.794;2023-05-25T14:37:05;96094.56;;;21.01;49.40
10978;BME280;5542;48.272;10.794;2023-05-25T14:39:31;96095.38;;;21.01;50.57
10978;BME280;5542;48.272;10.794;2023-05-25T14:41:59;96096.41;;;21.05;50.83
10978;BME280;5542;48.272;10.794;2023-05-25T14:44:26;96099.69;;;20.97;50.68
10978;BME280;5542;48.272;10.794;2023-05-25T14:46:53;96098.91;;;20.96;49.81
10978;BME280;5542;48.272;10.794;2023-05-25T14:49:20;96093.78;;;21.00;50.52
10978;BME280;5542;48.272;10.794;2023-05-25T14:51:49;96093.09;;;21.13;49.58
10978;BME280;5542;48.272;10.794;2023-05-25T14:54:15;96089.75;;;21.21;49.34
10978;BME280;5542;48.272;10.794;2023-05-25T14:56:42;96092.25;;;21.18;48.80
10978;BME280;5542;48.272;10.794;2023-05-25T14:59:10;96092.56;;;21.11;48.67
10978;BME280;5542;48.272;10.794;2023-05-25T15:01:36;96095.34;;;21.25;49.88
10978;BME280;5542;48.272;10.794;2023-05-25T15:04:03;96090.50;;;21.51;48.01
10978;BME280;5542;48.272;10.794;2023-05-25T15:06:30;96093.81;;;21.62;47.62
10978;BME280;5542;48.272;10.794;2023-05-25T15:08:57;96096.09;;;21.31;47.29
10978;BME280;5542;48.272;10.794;2023-05-25T15:11:24;96099.19;;;20.95;48.28
10978;BME280;5542;48.272;10.794;2023-05-25T15:13:51;96106.25;;;20.86;50.05
10978;BME280;5542;48.272;10.794;2023-05-25T15:16:19;96099.50;;;20.88;49.88
10978;BME280;5542;48.272;10.794;2023-05-25T15:18:45;96095.44;;;20.72;50.33
10978;BME280;5542;48.272;10.794;2023-05-25T15:21:12;96095.94;;;20.74;50.19
10978;BME280;5542;48.272;10.794;2023-05-25T15:23:38;96100.09;;;20.85;50.05
10978;BME280;5542;48.272;10.794;2023-05-25T15:26:05;96093.84;;;20.95;49.66
10978;BME280;5542;48.272;10.794;2023-05-25T15:28:32;96089.91;;;21.11;50.53
10978;BME280;5542;48.272;10.794;2023-05-25T15:30:59;96082.31;;;21.42;48.58
10978;BME280;5542;48.272;10.794;2023-05-25T15:33:27;96088.00;;;21.36;49.02
10978;BME280;5542;48.272;10.794;2023-05-25T15:35:53;96085.84;;;21.38;46.26
10978;BME280;5542;48.272;10.794;2023-05-25T15:38:20;96087.88;;;21.22;47.21
10978;BME280;5542;48.272;10.794;2023-05-25T15:40:47;96090.19;;;21.34;47.16
10978;BME280;5542;48.272;10.794;2023-05-25T15:43:13;96090.63;;;21.17;47.29
10978;BME280;5542;48.272;10.794;2023-05-25T15:45:40;96086.59;;;21.19;47.62
10978;BME280;5542;48.272;10.794;2023-05-25T15:48:06;96088.78;;;21.17;48.49
10978;BME280;5542;48.272;10.794;2023-05-25T15:50:35;96084.69;;;21.44;48.57
10978;BME280;5542;48.272;10.794;2023-05-25T15:53:03;96081.81;;;21.59;47.48
10978;BME280;5542;48.272;10.794;2023-05-25T15:55:30;96079.28;;;21.68;47.82
10978;BME280;5542;48.272;10.794;2023-05-25T15:57:57;96079.34;;;21.63;46.92
10978;BME280;5542;48.272;10.794;2023-05-25T16:00:24;96083.84;;;21.67;46.92
10978;BME280;5542;48.272;10.794;2023-05-25T16:02:51;96085.06;;;21.56;48.47
10978;BME280;5542;48.272;10.794;2023-05-25T16:05:17;96082.38;;;21.37;47.67
10978;BME280;5542;48.272;10.794;2023-05-25T16:07:45;96072.91;;;21.45;46.71
10978;BME280;5542;48.272;10.794;2023-05-25T16:10:12;96089.03;;;21.40;47.42
10978;BME280;5542;48.272;10.794;2023-05-25T16:12:39;96086.34;;;21.40;46.61
10978;BME280;5542;48.272;10.794;2023-05-25T16:15:06;96085.22;;;21.22;46.28
10978;BME280;5542;48.272;10.794;2023-05-25T16:17:32;96094.88;;;20.99;47.56
10978;BME280;5542;48.272;10.794;2023-05-25T16:19:59;96097.69;;;20.84;48.84
10978;BME280;5542;48.272;10.794;2023-05-25T16:22:25;96101.75;;;20.81;50.28
10978;BME280;5542;48.272;10.794;2023-05-25T16:24:53;96101.34;;;20.93;49.09
10978;BME280;5542;48.272;10.794;2023-05-25T16:27:20;96091.66;;;20.97;48.80
10978;BME280;5542;48.272;10.794;2023-05-25T16:29:47;96089.09;;;21.11;48.84
10978;BME280;5542;48.272;10.794;2023-05-25T16:32:13;96079.13;;;21.40;49.29
10978;BME280;5542;48.272;10.794;2023-05-25T16:34:40;96089.09;;;21.35;47.66
10978;BME280;5542;48.272;10.794;2023-05-25T16:37:06;96087.56;;;21.29;46.81
10978;BME280;5542;48.272;10.794;2023-05-25T16:39:33;96088.47;;;21.19;46.54
10978;BME280;5542;48.272;10.794;2023-05-25T16:42:01;96090.25;;;21.05;46.28
10978;BME280;5542;48.272;10.794;2023-05-25T16:44:28;96088.50;;;20.95;47.22
10978;BME280;5542;48.272;10.794;2023-05-25T16:46:54;96092.47;;;20.97;47.46
10978;BME280;5542;48.272;10.794;2023-05-25T16:49:21;96090.44;;;20.89;48.30
10978;BME280;5542;48.272;10.794;2023-05-25T16:51:47;96100.59;;;21.11;48.74
10978;BME280;5542;48.272;10.794;2023-05-25T16:54:14;96101.28;;;20.98;48.92
10978;BME280;5542;48.272;10.794;2023-05-25T16:56:40;96105.44;;;21.09;48.12
10978;BME280;5542;48.272;10.794;2023-05-25T16:59:09;96101.44;;;21.07;48.15
10978;BME280;5542;48.272;10.794;2023-05-25T17:01:36;96105.44;;;21.09;48.91
10978;BME280;5542;48.272;10.794;2023-05-25T17:04:03;96104.41;;;21.05;48.69
10978;BME280;5542;48.272;10.794;2023-05-25T17:06:29;96099.31;;;21.09;48.82
10978;BME280;5542;48.272;10.794;2023-05-25T17:08:57;96105.72;;;21.08;49.20
10978;BME280;5542;48.272;10.794;2023-05-25T17:11:23;96101.44;;;21.07;48.87
10978;BME280;5542;48.272;10.794;2023-05-25T17:13:50;96101.19;;;21.08;48.80
10978;BME280;5542;48.272;10.794;2023-05-25T17:16:18;96103.31;;;21.06;48.66
10978;BME280;5542;48.272;10.794;2023-05-25T17:18:45;96109.69;;;21.10;48.58
10978;BME280;5542;48.272;10.794;2023-05-25T17:21:12;96101.31;;;21.17;48.85
10978;BME280;5542;48.272;10.794;2023-05-25T17:23:39;96103.94;;;21.22;49.11
10978;BME280;5542;48.272;10.794;2023-05-25T17:26:06;96101.91;;;21.38;49.64
10978;BME280;5542;48.272;10.794;2023-05-25T17:28:33;96098.63;;;21.41;47.72
10978;BME280;5542;48.272;10.794;2023-05-25T17:31:00;96099.03;;;21.29;48.56
10978;BME280;5542;48.272;10.794;2023-05-25T17:33:28;96112.16;;;21.31;49.77
10978;BME280;5542;48.272;10.794;2023-05-25T17:35:55;96109.34;;;21.17;49.58
10978;BME280;5542;48.272;10.794;2023-05-25T17:38:21;96110.56;;;21.06;48.30
10978;BME280;5542;48.272;10.794;2023-05-25T17:40:48;96106.59;;;21.03;48.79
10978;BME280;5542;48.272;10.794;2023-05-25T17:43:14;96106.91;;;20.96;48.78
10978;BME280;5542;48.272;10.794;2023-05-25T17:45:41;96111.75;;;20.94;48.54
10978;BME280;5542;48.272;10.794;2023-05-25T17:48:08;96111.16;;;20.74;48.56
10978;BME280;5542;48.272;10.794;2023-05-25T17:50:36;96112.72;;;20.80;49.40
10978;BME280;5542;48.272;10.794;2023-05-25T17:53:02;96110.25;;;20.83;48.73
10978;BME280;5542;48.272;10.794;2023-05-25T17:55:29;96113.28;;;20.77;49.12
10978;BME280;5542;48.272;10.794;2023-05-25T17:57:55;96115.22;;;20.71;48.75
10978;BME280;5542;48.272;10.794;2023-05-25T18:00:22;96120.75;;;20.51;49.29
10978;BME280;5542;48.272;10.794;2023-05-25T18:02:50;96118.34;;;20.49;49.59
10978;BME280;5542;48.272;10.794;2023-05-25T18:05:16;96113.00;;;20.49;50.12
10978;BME280;5542;48.272;10.794;2023-05-25T18:07:44;96118.66;;;20.42;49.97
10978;BME280;5542;48.272;10.794;2023-05-25T18:10:11;96124.00;;;20.42;50.38
10978;BME280;5542;48.272;10.794;2023-05-25T18:12:38;96124.28;;;20.41;50.50
10978;BME280;5542;48.272;10.794;2023-05-25T18:15:06;96120.31;;;20.38;50.55
10978;BME280;5542;48.272;10.794;2023-05-25T18:17:33;96124.84;;;20.38;50.77
10978;BME280;5542;48.272;10.794;2023-05-25T18:19:59;96130.75;;;20.35;50.38
10978;BME280;5542;48.272;10.794;2023-05-25T18:22:26;96130.28;;;20.28;50.54
10978;BME280;5542;48.272;10.794;2023-05-25T18:24:54;96127.91;;;20.21;50.64
10978;BME280;5542;48.272;10.794;2023-05-25T18:27:20;96133.28;;;20.16;50.85
10978;BME280;5542;48.272;10.794;2023-05-25T18:29:49;96141.59;;;20.14;51.49
10978;BME280;5542;48.272;10.794;2023-05-25T18:32:16;96136.25;;;20.14;51.84
10978;BME280;5542;48.272;10.794;2023-05-25T18:34:42;96142.16;;;20.11;52.14
10978;BME280;5542;48.272;10.794;2023-05-25T18:37:09;96145.38;;;20.08;52.44
10978;BME280;5542;48.272;10.794;2023-05-25T18:39:36;96147.00;;;20.04;52.71
10978;BME280;5542;48.272;10.794;2023-05-25T18:42:05;96143.31;;;20.00;53.19
10978;BME280;5542;48.272;10.794;2023-05-25T18:44:31;96150.56;;;19.94;53.09
10978;BME280;5542;48.272;10.794;2023-05-25T18:46:58;96138.28;;;19.88;53.49
10978;BME280;5542;48.272;10.794;2023-05-25T18:49:30;96139.69;;;19.81;53.56
10978;BME280;5542;48.272;10.794;2023-05-25T18:51:58;96146.66;;;19.77;53.97
10978;BME280;5542;48.272;10.794;2023-05-25T18:54:25;96155.19;;;19.74;54.04
10978;BME280;5542;48.272;10.794;2023-05-25T18:56:52;96153.09;;;19.71;54.18
10978;BME280;5542;48.272;10.794;2023-05-25T18:59:20;96148.84;;;19.64;54.53
10978;BME280;5542;48.272;10.794;2023-05-25T19:01:47;96147.53;;;19.57;54.88
10978;BME280;5542;48.272;10.794;2023-05-25T19:04:14;96152.06;;;19.51;55.05
10978;BME280;5542;48.272;10.794;2023-05-25T19:06:40;96151.84;;;19.48;55.34
10978;BME280;5542;48.272;10.794;2023-05-25T19:09:07;96150.50;;;19.45;55.60
10978;BME280;5542;48.272;10.794;2023-05-25T19:11:33;96162.00;;;19.40;55.82
10978;BME280;5542;48.272;10.794;2023-05-25T19:14:00;96153.22;;;19.35;55.98
10978;BME280;5542;48.272;10.794;2023-05-25T19:16:28;96165.50;;;19.31;56.22
10978;BME280;5542;48.272;10.794;2023-05-25T19:18:54;96166.31;;;19.26;56.45
10978;BME280;5542;48.272;10.794;2023-05-25T19:21:21;96170.09;;;19.20;56.39
10978;BME280;5542;48.272;10.794;2023-05-25T19:23:48;96169.81;;;19.16;56.74
10978;BME280;5542;48.272;10.794;2023-05-25T19:26:15;96180.50;;;19.11;56.92
10978;BME280;5542;48.272;10.794;2023-05-25T19:28:42;96170.66;;;19.07;57.01
10978;BME280;5542;48.272;10.794;2023-05-25T19:31:09;96172.53;;;19.01;57.39
10978;BME280;5542;48.272;10.794;2023-05-25T19:33:37;96178.41;;;18.93;57.33
10978;BME280;5542;48.272;10.794;2023-05-25T19:36:03;96181.09;;;18.88;57.37
10978;BME280;5542;48.272;10.794;2023-05-25T19:38:30;96180.59;;;18.81;57.90
10978;BME280;5542;48.272;10.794;2023-05-25T19:40:57;96189.38;;;18.76;57.90
10978;BME280;5542;48.272;10.794;2023-05-25T19:43:23;96187.53;;;18.72;58.19
10978;BME280;5542;48.272;10.794;2023-05-25T19:45:50;96192.28;;;18.64;58.21
10978;BME280;5542;48.272;10.794;2023-05-25T19:48:16;96195.50;;;18.61;58.40
10978;BME280;5542;48.272;10.794;2023-05-25T19:50:45;96197.63;;;18.54;58.52
10978;BME280;5542;48.272;10.794;2023-05-25T19:53:12;96197.63;;;18.49;58.81
10978;BME280;5542;48.272;10.794;2023-05-25T19:55:38;96204.53;;;18.45;58.83
10978;BME280;5542;48.272;10.794;2023-05-25T19:58:05;96198.94;;;18.41;58.86
10978;BME280;5542;48.272;10.794;2023-05-25T20:00:32;96206.13;;;18.36;59.02
10978;BME280;5542;48.272;10.794;2023-05-25T20:02:58;96211.47;;;18.31;59.20
10978;BME280;5542;48.272;10.794;2023-05-25T20:05:25;96201.88;;;18.25;59.26
10978;BME280;5542;48.272;10.794;2023-05-25T20:07:53;96209.59;;;18.21;59.37
10978;BME280;5542;48.272;10.794;2023-05-25T20:10:20;96212.50;;;18.14;59.77
10978;BME280;5542;48.272;10.794;2023-05-25T20:12:47;96205.84;;;18.12;59.58
10978;BME280;5542;48.272;10.794;2023-05-25T20:15:13;96214.88;;;18.06;59.68
10978;BME280;5542;48.272;10.794;2023-05-25T20:17:40;96219.94;;;18.02;59.85
10978;BME280;5542;48.272;10.794;2023-05-25T20:20:07;96225.25;;;17.97;59.85
10978;BME280;5542;48.272;10.794;2023-05-25T20:22:34;96223.38;;;17.92;59.98
10978;BME280;5542;48.272;10.794;2023-05-25T20:25:03;96217.75;;;17.89;59.78
10978;BME280;5542;48.272;10.794;2023-05-25T20:27:29;96226.28;;;17.81;59.94
10978;BME280;5542;48.272;10.794;2023-05-25T20:29:56;96225.44;;;17.75;60.33
10978;BME280;5542;48.272;10.794;2023-05-25T20:32:23;96228.59;;;17.72;60.12
10978;BME280;5542;48.272;10.794;2023-05-25T20:34:49;96224.06;;;17.67;60.28
10978;BME280;5542;48.272;10.794;2023-05-25T20:37:16;96222.47;;;17.61;60.37
10978;BME280;5542;48.272;10.794;2023-05-25T20:39:42;96225.63;;;17.58;60.42
10978;BME280;5542;48.272;10.794;2023-05-25T20:42:10;96229.88;;;17.54;60.47
10978;BME280;5542;48.272;10.794;2023-05-25T20:44:38;96225.59;;;17.48;60.53
10978;BME280;5542;48.272;10.794;2023-05-25T20:47:05;96228.75;;;17.45;60.65
10978;BME280;5542;48.272;10.794;2023-05-25T20:49:31;96234.06;;;17.40;60.74
10978;BME280;5542;48.272;10.794;2023-05-25T20:51:58;96237.75;;;17.34;60.83
10978;BME280;5542;48.272;10.794;2023-05-25T20:54:24;96231.63;;;17.28;60.89
10978;BME280;5542;48.272;10.794;2023-05-25T20:56:51;96236.63;;;17.25;60.99
10978;BME280;5542;48.272;10.794;2023-05-25T20:59:19;96229.72;;;17.19;60.99
10978;BME280;5542;48.272;10.794;2023-05-25T21:01:46;96229.16;;;17.17;60.86